Tiempo atmosférico en la estación meteorológica de Motril, Puerto, Granada (3 m.)



Fecha
DESCASC
Temp. máxima en grados centígrados (hora)
DESCASC
Temp. mínima en grados centígrados (hora)
DESCASC
Temp. media en grados centígrados
DESCASC
Racha de viento máxima en m/sg (hora)
DESCASC
Velocidad máxima media en intervalos de 10 minutos(hora)
DESCASC
Precipitaciones diarias en mm
DESCASC
Precipitaciones de 00:00 a 06:00 en mm
DESCASC
Precipitaciones de 06:00 a 12:00 en mm
DESCASC
Precipitaciones de 12:00 a 18:00 en mm
DESCASC
Precipitaciones de 18:00 a 24:00 en mm
DESCASC
08-12-2019 19.2 (12:40) 11 (02:50) 15.1 6.94 (23:00) 4.44 (06:50) 0 0 0 0 0
07-12-2019 22.1 (11:30) 12.4 (23:59) 17.3 7.5 (13:50) 3.61 (13:40) 0 0 0 0 0
06-12-2019 24.2 (12:00) 10.9 (06:40) 17.6 11.39 (17:00) 8.89 (17:00) 0 0 0 0 0
05-12-2019 20.6 (10:40) 11.7 (00:00) 16.2 11.39 (15:50) 7.5 (15:20) 0 0 0 0 0
04-12-2019 21 (10:50) 11 (00:00) 16 13.33 (16:50) 7.22 (08:10) 0 0 0 0 0
03-12-2019 16.4 (13:20) 11.4 (00:00) 13.9 6.67 (12:00) 3.89 (14:00) 4 1.2 2.8 0 0
02-12-2019 19.6 (10:50) 11.6 (00:00) 15.6 11.67 (17:10) 7.22 (13:10) 1.6 0.8 0.6 0 0.2
01-12-2019 19.3 (11:40) 12.5 (00:00) 15.9 10.28 (14:00) 5.28 (13:00) 5.8 0 0 0 5.8
30-11-2019 24 (10:40) 10.1 (00:00) 17.1 5 (23:10) 2.78 (23:00) 0 0 0 0 0
29-11-2019 21.2 (10:10) 10.8 (00:00) 16 5 (02:10) 3.06 (13:10) 0 0 0 0 0
28-11-2019 23 (10:40) 13.2 (00:00) 18.1 8.06 (09:10) 3.89 (08:50) 0 0 0 0 0
27-11-2019 21.1 (10:20) 15.3 (00:00) 18.2 13.06 (14:40) 6.94 (14:30) 0 0 0 0 0
26-11-2019 23.7 (10:30) 14.5 (00:00) 19.1 9.17 (17:30) 5.28 (17:30) 0 0 0 0 0
25-11-2019 21.8 (10:50) 12.6 (00:00) 17.2 10.83 (14:10) 6.11 (21:50) 0 0 0 0 0
24-11-2019 22.5 (12:00) 11.5 (00:00) 17 14.17 (06:40) 7.78 (07:00) 0 0 0 0 0
23-11-2019 19.6 (13:50) 14 (00:00) 16.8 16.39 (07:20) 9.72 (07:30) 0 0 0 0 0
22-11-2019 16.1 (19:40) 13.8 (00:00) 15 11.39 (23:59) 5.56 (21:30) 69 9.6 30.6 23.4 5.4
21-11-2019 16 (15:10) 11.1 (00:00) 13.6 3.33 (15:40) 1.94 (20:20) 20.6 0 1.6 3.6 15.4
20-11-2019 21.2 (10:50) 9.5 (00:00) 15.4 7.78 (14:20) 3.89 (14:20) 0.8 0 0 0.2 0.6
19-11-2019 21.4 (11:10) 11.6 (00:00) 16.5 6.67 (03:10) 3.33 (03:20) 0 0 0 0 0
18-11-2019 21.5 (12:30) 13 (00:00) 17.3 13.06 (09:30) 8.33 (09:50) 0 0 0 0 0
17-11-2019 19 (13:40) 9.8 (00:00) 14.4 13.89 (19:50) 8.06 (19:40) 0 0 0 0 0
16-11-2019 19.4 (11:50) 9.5 (00:00) 14.4 12.22 (20:20) 6.39 (15:30) 0 0 0 0 0
15-11-2019 18 (12:50) 11.2 (00:00) 14.6 11.67 (20:30) 6.67 (18:30) 0 0 0 0 0
14-11-2019 19.5 (10:10) 13.1 (00:00) 16.3 16.67 (12:40) 9.72 (12:40) 0 0 0 0 0
13-11-2019 23 (13:40) 16.4 (00:00) 19.7 15 (02:50) 9.44 (02:10) 0 0 0 0 0
12-11-2019 24.3 (11:30) 15.3 (00:00) 19.8 11.94 (20:40) 5.56 (06:00) 0 0 0 0 0
11-11-2019 20.6 (15:40) 12.5 (07:20) 16.6 15.28 (02:30) 9.72 (01:50) 0 0 0 0 0
10-11-2019 21.2 (13:20) 14.6 (00:00) 17.9 16.39 (06:00) 9.72 (08:30) 0 0 0 0 0

Gráficas

Temp. máximas Temp. mínimas Temp. medias Precipitaciones Rachas de viento máximas Velocidades máximas media en intervalos de 10 minutos

Datos horarios

Fecha y hora oficial Temperatura (ºC) Velocidad del viento (km/h) Dirección del viento Racha (km/h) Dirección de racha Precipitación (mm) Presión (hPa) Tendencia (hPa) Humedad (%)
2019-12-09 23:00:00 13.5 2 Sudeste 5 Sudeste 0 -- -- 88
2019-12-09 22:00:00 13.8 0 Calma 3 Oeste 0 -- -- 87
2019-12-09 21:00:00 14 0 Calma 5 Norte 0 -- -- 88
2019-12-09 20:00:00 14.8 2 Este 4 Sudeste 0 -- -- 88
2019-12-09 19:00:00 15.5 0 Calma 6 Noroeste 0 -- -- 86
2019-12-09 18:00:00 16.6 6 Oeste 11 Oeste 0 -- -- 83
2019-12-09 17:00:00 17.2 0 Calma 6 Sur 0 -- -- 76
2019-12-09 16:00:00 18.3 4 Sur 6 Sur 0 -- -- 75
2019-12-09 15:00:00 20.1 4 Sudeste 10 Sudoeste 0 -- -- 73
2019-12-09 14:00:00 20.3 5 Sudoeste 22 Sudeste 0 -- -- 72
2019-12-09 13:00:00 19 13 Sudeste 20 Sudeste 0 -- -- 72
2019-12-09 12:00:00 20.9 8 Sur 13 Sur 0 -- -- 60
2019-12-09 11:00:00 20.7 10 Sudeste 13 Sudeste 0 -- -- 64
2019-12-09 10:00:00 21.4 6 Nordeste 14 Este 0 -- -- 56
2019-12-09 09:00:00 17.4 7 Sur 13 Sur 0 -- -- 61
2019-12-09 08:00:00 14.9 3 Norte 15 Sudeste 0 -- -- 61
2019-12-09 07:00:00 16.9 8 Norte 29 Noroeste 0 -- -- 54
2019-12-09 06:00:00 17.2 12 Norte 32 Norte 0 -- -- 53
2019-12-09 05:00:00 17.3 13 Norte 35 Norte 0 -- -- 54
2019-12-09 04:00:00 17.4 15 Norte 33 Norte 0 -- -- 51
2019-12-09 03:00:00 17 9 Norte 25 Noroeste 0 -- -- 53
2019-12-09 02:00:00 16.2 3 Sudoeste 17 Noroeste 0 -- -- 57
2019-12-09 01:00:00 14.7 3 Noroeste 7 Norte 0 -- -- 72
2019-12-09 00:00:00 14.9 4 Noroeste 13 Este 0 -- -- 75
2019-12-08 23:00:00 16.7 11 Nordeste 25 Norte 0 -- -- 61
2019-12-08 22:00:00 14.9 3 Sudoeste 10 Norte 0 -- -- 88
2019-12-08 21:00:00 14.2 0 Calma 6 Este 0 -- -- 88
2019-12-08 20:00:00 14.3 3 Noroeste 6 Oeste 0 -- -- 86
2019-12-08 19:00:00 14.9 0 Calma 5 Sudoeste 0 -- -- 84
2019-12-08 18:00:00 15.4 0 Calma 13 Oeste 0 -- -- 81
2019-12-08 17:00:00 16.2 9 Oeste 16 Oeste 0 -- -- 77
2019-12-08 16:00:00 17.1 6 Sudoeste 19 Sudoeste 0 -- -- 77
2019-12-08 15:00:00 18.9 7 Oeste 21 Oeste 0 -- -- 69
2019-12-08 14:00:00 18.9 8 Oeste 24 Sudoeste 0 -- -- 68
2019-12-08 13:00:00 19 9 Oeste 25 Oeste 0 -- -- 67
2019-12-08 12:00:00 19.1 13 Oeste 25 Oeste 0 -- -- 64
2019-12-08 11:00:00 18.1 13 Oeste 23 Noroeste 0 -- -- 67
2019-12-08 10:00:00 17.1 11 Oeste 23 Oeste 0 -- -- 58
2019-12-08 09:00:00 13.8 11 Noroeste 19 Noroeste 0 -- -- 66
2019-12-08 08:00:00 12.2 8 Noroeste 20 Oeste 0 -- -- 71
2019-12-08 07:00:00 12.7 15 Noroeste 24 Noroeste 0 -- -- 70
2019-12-08 06:00:00 12.5 15 Noroeste 22 Oeste 0 -- -- 73
2019-12-08 05:00:00 12.5 13 Noroeste 22 Noroeste 0 -- -- 75
2019-12-08 04:00:00 12.3 12 Noroeste 20 Noroeste 0 -- -- 81
2019-12-08 03:00:00 11.3 3 Noroeste 5 Noroeste 0 -- -- 89
2019-12-08 02:00:00 11.7 0 Calma 4 Norte 0 -- -- 89
2019-12-08 01:00:00 12.4 4 Nordeste 5 Nordeste 0 -- -- 89
2019-12-08 00:00:00 12.4 2 Noroeste 5 Nordeste 0 -- -- 87
2019-12-07 23:00:00 12.9 0 Calma 2 Noroeste 0 -- -- 85
2019-12-07 22:00:00 13.7 0 Calma 5 Noroeste 0 -- -- 84
2019-12-07 21:00:00 14.8 5 Noroeste 10 Oeste 0 -- -- 83
2019-12-07 20:00:00 15.6 6 Oeste 11 Noroeste 0 -- -- 81
2019-12-07 19:00:00 15.9 4 Oeste 10 Oeste 0 -- -- 80
2019-12-07 18:00:00 16.1 3 Oeste 12 Oeste 0 -- -- 78
2019-12-07 17:00:00 16.6 5 Sudoeste 15 Sudoeste 0 -- -- 74
2019-12-07 16:00:00 16.9 9 Sudoeste 21 Sudoeste 0 -- -- 77
2019-12-07 15:00:00 17.8 8 Oeste 24 Sudoeste 0 -- -- 72
2019-12-07 14:00:00 19.6 13 Oeste 27 Oeste 0 -- -- 65
2019-12-07 13:00:00 19.8 8 Sudoeste 17 Sudoeste 0 -- -- 68
2019-12-07 12:00:00 20.6 8 Sur 15 Sur 0 -- -- 64
2019-12-07 11:00:00 20.6 7 Sudeste 9 Sudeste 0 -- -- 53
2019-12-07 10:00:00 19.3 3 Este 7 Oeste 0 -- -- 58
2019-12-07 09:00:00 14.9 5 Noroeste 9 Noroeste 0 -- -- 63
2019-12-07 08:00:00 15 3 Oeste 11 Nordeste 0 -- -- 60
2019-12-07 07:00:00 15.6 5 Norte 14 Nordeste 0 -- -- 56
2019-12-07 06:00:00 15.8 2 Nordeste 15 Noroeste 0 -- -- 56
2019-12-07 05:00:00 15.7 7 Norte 15 Nordeste 0 -- -- 61
2019-12-07 04:00:00 13.9 0 Calma 3 Oeste 0 -- -- 85
2019-12-07 03:00:00 14.3 0 Calma 5 Noroeste 0 -- -- 85
2019-12-07 02:00:00 14.2 0 Calma 2 Oeste 0 -- -- 86
2019-12-07 01:00:00 14.4 0 Calma 6 Noroeste 0 -- -- 85
2019-12-07 00:00:00 14.4 3 Norte 7 Nordeste 0 -- -- 83
2019-12-06 23:00:00 14.5 2 Nordeste 4 Este 0 -- -- 82
2019-12-06 22:00:00 15.2 0 Calma 5 Oeste 0 -- -- 79
2019-12-06 21:00:00 15.7 2 Norte 4 Este 0 -- -- 76
2019-12-06 20:00:00 16.3 4 Sudeste 22 Este 0 -- -- 75
2019-12-06 19:00:00 16.2 6 Este 33 Este 0 -- -- 73
2019-12-06 18:00:00 16.7 24 Este 40 Este 0 -- -- 73
2019-12-06 17:00:00 17.3 32 Sudeste 41 Este 0 -- -- 71
2019-12-06 16:00:00 18.2 19 Este 33 Este 0 -- -- 65
2019-12-06 15:00:00 19.2 21 Este 32 Este 0 -- -- 60
2019-12-06 14:00:00 19.3 23 Sudeste 32 Este 0 -- -- 57
2019-12-06 13:00:00 21.7 7 Sudoeste 14 Sudoeste 0 -- -- 49
2019-12-06 12:00:00 24.2 2 Este 15 Sudoeste 0 -- -- 42
2019-12-06 11:00:00 21.5 8 Sudoeste 15 Sudoeste 0 -- -- 51
2019-12-06 10:00:00 19.5 7 Sur 10 Sur 0 -- -- 52
2019-12-06 09:00:00 13.3 4 Nordeste 8 Nordeste 0 -- -- 71
2019-12-06 08:00:00 11.9 3 Sudeste 7 Nordeste 0 -- -- 77
2019-12-06 07:00:00 11.1 3 Este 4 Nordeste 0 -- -- 81
2019-12-06 06:00:00 11.7 2 Sudeste 5 Noroeste 0 -- -- 82
2019-12-06 05:00:00 11.6 2 Norte 5 Noroeste 0 -- -- 79
2019-12-06 04:00:00 12.7 0 Calma 8 Norte 0 -- -- 81
2019-12-06 03:00:00 12.1 0 Calma 7 Norte 0 -- -- 81
2019-12-06 02:00:00 12 3 Norte 6 Norte 0 -- -- 84
2019-12-06 01:00:00 13 2 Nordeste 10 Oeste 0 -- -- 83
2019-12-06 00:00:00 12.5 3 Noroeste 8 Oeste 0 -- -- 85
2019-12-05 23:00:00 12 0 Calma 6 Noroeste 0 -- -- 86
2019-12-05 22:00:00 12.4 0 Calma 5 Sudeste 0 -- -- 85
2019-12-05 21:00:00 12.7 3 Norte 5 Nordeste 0 -- -- 83
2019-12-05 20:00:00 13.8 2 Norte 9 Este 0 -- -- 78
2019-12-05 19:00:00 15.2 7 Este 23 Este 0 -- -- 75
2019-12-05 18:00:00 15.9 18 Este 30 Este 0 -- -- 74
2019-12-05 17:00:00 16.3 18 Este 29 Este 0 -- -- 72
2019-12-05 16:00:00 16.6 24 Este 41 Este 0 -- -- 69
2019-12-05 15:00:00 17.2 24 Este 39 Sudeste 0 -- -- 66
2019-12-05 14:00:00 16.8 21 Este 37 Sudeste 0 -- -- 69
2019-12-05 13:00:00 16.1 25 Sudeste 38 Este 0 -- -- 71
2019-12-05 12:00:00 16.1 21 Este 31 Este 0 -- -- 72
2019-12-05 11:00:00 17 14 Este 25 Sudeste 0 -- -- 65
2019-12-05 10:00:00 14.9 6 Nordeste 10 Nordeste 0 -- -- 60
2019-12-05 09:00:00 12.8 0 Calma 9 Nordeste 0 -- -- 67
2019-12-05 08:00:00 12.7 5 Este 12 Nordeste 0 -- -- 66
2019-12-05 07:00:00 12.4 0 Calma 7 Norte 0 -- -- 66
2019-12-05 06:00:00 13.2 4 Norte 15 Norte 0 -- -- 61
2019-12-05 05:00:00 14 9 Norte 27 Norte 0 -- -- 60
2019-12-05 04:00:00 13.7 11 Norte 23 Norte 0 -- -- 61
2019-12-05 03:00:00 13 5 Noroeste 17 Norte 0 -- -- 65
2019-12-05 02:00:00 12 3 Oeste 13 Oeste 0 -- -- 70
2019-12-05 01:00:00 12.6 6 Noroeste 13 Oeste 0 -- -- 67
2019-12-05 00:00:00 12.8 6 Oeste 12 Oeste 0 -- -- 68
2019-12-04 23:00:00 12.3 2 Oeste 5 Oeste 0 -- -- 72
2019-12-04 22:00:00 12.6 2 Noroeste 6 Oeste 0 -- -- 71
2019-12-04 21:00:00 13.8 2 Sudoeste 21 Oeste 0 -- -- 73
2019-12-04 20:00:00 14.3 3 Noroeste 26 Oeste 0 -- -- 69
2019-12-04 19:00:00 14.9 16 Oeste 39 Oeste 0 -- -- 76
2019-12-04 18:00:00 15.2 22 Oeste 41 Oeste 0 -- -- 73
2019-12-04 17:00:00 16 22 Oeste 48 Oeste 0 -- -- 72
2019-12-04 16:00:00 17.1 21 Oeste 40 Oeste 0 -- -- 66
2019-12-04 15:00:00 18.2 21 Oeste 39 Oeste 0 -- -- 65
2019-12-04 14:00:00 18.2 21 Oeste 41 Oeste 0 -- -- 64
2019-12-04 13:00:00 18.6 22 Oeste 42 Oeste 0 -- -- 61
2019-12-04 12:00:00 19.6 17 Oeste 29 Sudoeste 0 -- -- 56
2019-12-04 11:00:00 20.8 9 Oeste 23 Oeste 0 -- -- 49
2019-12-04 10:00:00 18.1 13 Oeste 30 Oeste 0 -- -- 61
2019-12-04 09:00:00 16.5 15 Noroeste 39 Noroeste 0 -- -- 54
2019-12-04 08:00:00 14.4 23 Oeste 38 Noroeste 0 -- -- 59
2019-12-04 07:00:00 12.4 10 Oeste 23 Oeste 0 -- -- 74
2019-12-04 06:00:00 11.3 5 Noroeste 14 Oeste 0 -- -- 74
2019-12-04 05:00:00 11.1 3 Oeste 13 Oeste 0 -- -- 73
2019-12-04 04:00:00 11.2 4 Oeste 9 Oeste 0 -- -- 74
2019-12-04 03:00:00 11.8 6 Noroeste 15 Noroeste 0 -- -- 73
2019-12-04 02:00:00 11.9 9 Noroeste 15 Noroeste 0 -- -- 76
2019-12-04 01:00:00 11.3 4 Noroeste 8 Noroeste 0 -- -- 85
2019-12-04 00:00:00 11.4 4 Nordeste 9 Nordeste 0 -- -- 91
2019-12-03 23:00:00 12.1 2 Nordeste 4 Nordeste 0 -- -- 90
2019-12-03 22:00:00 12.7 0 Calma 8 Noroeste 0 -- -- 88
2019-12-03 21:00:00 13.5 6 Noroeste 12 Noroeste 0 -- -- 87
2019-12-03 20:00:00 14.3 8 Noroeste 17 Oeste 0 -- -- 85
2019-12-03 19:00:00 14.6 3 Noroeste 9 Oeste 0 -- -- 84
2019-12-03 18:00:00 15 0 Calma 9 Noroeste 0 -- -- 81
2019-12-03 17:00:00 15.8 3 Oeste 14 Sudoeste 0 -- -- 80
2019-12-03 16:00:00 15.8 10 Oeste 18 Oeste 0 -- -- 78
2019-12-03 15:00:00 15.9 9 Oeste 20 Oeste 0 -- -- 77
2019-12-03 14:00:00 15.3 14 Oeste 21 Oeste 0 -- -- 78
2019-12-03 13:00:00 16.2 8 Oeste 23 Norte 0 -- -- 70
2019-12-03 12:00:00 15 11 Norte 24 Norte 0 -- -- 70
2019-12-03 11:00:00 13.4 4 Norte 15 Norte 0.4 -- -- 85
2019-12-03 10:00:00 13.2 5 Noroeste 14 Este 2.4 -- -- 82
2019-12-03 09:00:00 14.6 5 Norte 16 Norte 0 -- -- 72
2019-12-03 08:00:00 13.2 7 Norte 17 Norte 0 -- -- 84
2019-12-03 07:00:00 12.4 0 Calma 9 Noroeste 0 -- -- 92
2019-12-03 06:00:00 12.5 3 Sudeste 8 Este 0 -- -- 92
2019-12-03 05:00:00 13.2 3 Este 10 Noroeste 0 -- -- 92
2019-12-03 04:00:00 13.2 6 Oeste 12 Oeste 0.2 -- -- 92
2019-12-03 03:00:00 13 0 Calma 8 Sudoeste 0 -- -- 91
2019-12-03 02:00:00 13.3 4 Sur 6 Sur 0.2 -- -- 89
2019-12-03 01:00:00 13.5 4 Noroeste 13 Este 0.8 -- -- 88
2019-12-03 00:00:00 14.2 13 Este 30 Este 0.2 -- -- 83
2019-12-02 23:00:00 14.7 7 Este 17 Este 0 -- -- 80
2019-12-02 22:00:00 14.7 2 Nordeste 12 Sudeste 0 -- -- 80
2019-12-02 21:00:00 14.6 0 Calma 14 Nordeste 0 -- -- 78
2019-12-02 20:00:00 15 8 Este 21 Este 0 -- -- 76
2019-12-02 19:00:00 14.9 16 Este 33 Sudeste 0 -- -- 80
2019-12-02 18:00:00 15.3 25 Este 42 Sudeste 0 -- -- 79
2019-12-02 17:00:00 15.6 24 Sudeste 38 Sudeste 0 -- -- 77
2019-12-02 16:00:00 16.1 26 Este 37 Este 0 -- -- 74
2019-12-02 15:00:00 16.9 23 Este 32 Sudeste 0 -- -- 72
2019-12-02 14:00:00 15.8 19 Este 35 Sudeste 0 -- -- 77
2019-12-02 13:00:00 17 23 Sudeste 32 Sudeste 0 -- -- 75
2019-12-02 12:00:00 17.4 19 Sudeste 27 Sudeste 0 -- -- 69
2019-12-02 11:00:00 18.1 18 Sudeste 25 Sudeste 0 -- -- 67
2019-12-02 10:00:00 15.1 4 Este 10 Este 0 -- -- 84
2019-12-02 09:00:00 12.3 3 Norte 9 Este 0 -- -- 91
2019-12-02 08:00:00 11.7 5 Este 9 Este 0 -- -- 93
2019-12-02 07:00:00 12.2 3 Nordeste 7 Nordeste 0.6 -- -- 94
2019-12-02 06:00:00 12.1 3 Este 11 Nordeste 0 -- -- 94
2019-12-02 05:00:00 11.8 6 Nordeste 9 Nordeste 0 -- -- 94
2019-12-02 04:00:00 12.4 0 Calma 7 Nordeste 0 -- -- 94
2019-12-02 03:00:00 12.9 0 Calma 4 Sudeste 0 -- -- 93
2019-12-02 02:00:00 13.9 0 Calma 4 Norte 0 -- -- 93
2019-12-02 01:00:00 13.8 0 Calma 6 Sudoeste 0.8 -- -- 92
2019-12-02 00:00:00 14 0 Calma 10 Noroeste 0 -- -- 91
2019-12-01 23:00:00 14.3 2 Noroeste 5 Nordeste 5.4 -- -- 90
2019-12-01 22:00:00 14.4 3 Nordeste 6 Oeste 0 -- -- 87
2019-12-01 21:00:00 14.7 3 Noroeste 21 Oeste 0.4 -- -- 85
2019-12-01 20:00:00 15.4 14 Oeste 24 Oeste 0 -- -- 76
2019-12-01 19:00:00 15.4 8 Oeste 24 Oeste 0 -- -- 76
2019-12-01 18:00:00 15.2 14 Oeste 26 Oeste 0 -- -- 76
2019-12-01 17:00:00 15.9 13 Oeste 30 Oeste 0 -- -- 74
2019-12-01 16:00:00 16.5 17 Oeste 35 Oeste 0 -- -- 77
2019-12-01 15:00:00 17.8 16 Oeste 36 Oeste 0 -- -- 73
2019-12-01 14:00:00 17.6 18 Oeste 37 Oeste 0 -- -- 72
2019-12-01 13:00:00 17.9 19 Oeste 36 Oeste 0 -- -- 71
2019-12-01 12:00:00 17.6 17 Oeste 33 Oeste 0 -- -- 66
2019-12-01 11:00:00 17.5 12 Oeste 23 Oeste 0 -- -- 66
2019-12-01 10:00:00 16.1 5 Oeste 22 Noroeste 0 -- -- 74
2019-12-01 09:00:00 15.2 7 Noroeste 12 Noroeste 0 -- -- 75
2019-12-01 08:00:00 15 8 Oeste 18 Oeste 0 -- -- 78
2019-12-01 07:00:00 14.5 12 Oeste 24 Oeste 0 -- -- 80
2019-12-01 06:00:00 14.5 15 Oeste 23 Oeste 0 -- -- 84
2019-12-01 05:00:00 13.1 10 Noroeste 18 Oeste 0 -- -- 85
2019-12-01 04:00:00 12.7 7 Noroeste 11 Noroeste 0 -- -- 88
2019-12-01 03:00:00 12.8 6 Noroeste 18 Oeste 0 -- -- 86
2019-12-01 02:00:00 12.7 8 Oeste 15 Oeste 0 -- -- 90
2019-12-01 01:00:00 13.1 3 Noroeste 14 Noroeste 0 -- -- 90
2019-12-01 00:00:00 13.7 9 Noroeste 18 Oeste 0 -- -- 89
2019-11-30 23:00:00 13.1 10 Oeste 17 Oeste 0 -- -- 87
2019-11-30 22:00:00 11.9 0 Calma 5 Norte 0 -- -- 88
2019-11-30 21:00:00 12.5 0 Calma 6 Noroeste 0 -- -- 87
2019-11-30 20:00:00 13.2 2 Noroeste 4 Noroeste 0 -- -- 87
2019-11-30 19:00:00 14.6 3 Noroeste 9 Oeste 0 -- -- 86
2019-11-30 18:00:00 15.4 4 Oeste 9 Oeste 0 -- -- 80
2019-11-30 17:00:00 16.1 4 Oeste 11 Sudoeste 0 -- -- 76
2019-11-30 16:00:00 16.8 7 Sudoeste 12 Sudoeste 0 -- -- 83
2019-11-30 15:00:00 19.6 4 Sur 10 Sudoeste 0 -- -- 71
2019-11-30 14:00:00 20 6 Sudoeste 10 Sudoeste 0 -- -- 67
2019-11-30 13:00:00 22 4 Sudoeste 9 Sur 0 -- -- 60
2019-11-30 12:00:00 21.6 4 Sudeste 10 Sur 0 -- -- 60
2019-11-30 11:00:00 22 5 Sur 8 Sudeste 0 -- -- 59
2019-11-30 10:00:00 19.9 0 Calma 3 Este 0 -- -- 61
2019-11-30 09:00:00 14.7 0 Calma 5 Nordeste 0 -- -- 77
2019-11-30 08:00:00 10.2 0 Calma 2 Norte 0 -- -- 88
2019-11-30 07:00:00 10.4 0 Calma 4 Norte 0 -- -- 87
2019-11-30 06:00:00 10.5 0 Calma 2 Nordeste 0 -- -- 87
2019-11-30 05:00:00 10.7 0 Calma 4 Norte 0 -- -- 87
2019-11-30 04:00:00 10.5 0 Calma 4 Norte 0 -- -- 88
2019-11-30 03:00:00 10.9 0 Calma 4 Nordeste 0 -- -- 87
2019-11-30 02:00:00 10.9 0 Calma 3 Nordeste 0 -- -- 87
2019-11-30 01:00:00 11.2 0 Calma 3 Nordeste 0 -- -- 87
2019-11-30 00:00:00 11.7 0 Calma 5 Norte 0 -- -- 88
2019-11-29 23:00:00 11.7 0 Calma 3 Norte 0 -- -- 88
2019-11-29 22:00:00 12.5 0 Calma 3 Noroeste 0 -- -- 89
2019-11-29 21:00:00 12.9 0 Calma 5 Sudeste 0 -- -- 89
2019-11-29 20:00:00 13.7 0 Calma 3 Nordeste 0 -- -- 89
2019-11-29 19:00:00 14.3 0 Calma 4 Sudoeste 0 -- -- 88
2019-11-29 18:00:00 15.4 3 Sudoeste 5 Sudoeste 0 -- -- 86
2019-11-29 17:00:00 16.1 0 Calma 8 Sudoeste 0 -- -- 84
2019-11-29 16:00:00 16.8 4 Sudoeste 10 Sudoeste 0 -- -- 81
2019-11-29 15:00:00 19.2 5 Sudoeste 14 Sur 0 -- -- 73
2019-11-29 14:00:00 18.2 9 Sur 16 Sur 0 -- -- 74
2019-11-29 13:00:00 18.2 9 Sudeste 17 Sudeste 0 -- -- 73
2019-11-29 12:00:00 18.4 8 Sudeste 12 Sudeste 0 -- -- 70
2019-11-29 11:00:00 20.6 5 Sur 8 Sur 0 -- -- 59
2019-11-29 10:00:00 20.5 2 Este 6 Sudeste 0 -- -- 63
2019-11-29 09:00:00 14 3 Sudeste 5 Este 0 -- -- 83
2019-11-29 08:00:00 10.8 0 Calma 4 Nordeste 0 -- -- 89
2019-11-29 07:00:00 11.2 0 Calma 5 Este 0 -- -- 89
2019-11-29 06:00:00 12.3 0 Calma 6 Norte 0 -- -- 88
2019-11-29 05:00:00 12.5 3 Oeste 10 Sudeste 0 -- -- 85
2019-11-29 04:00:00 14.1 5 Sudeste 10 Sudeste 0 -- -- 83
2019-11-29 03:00:00 14.9 6 Sur 18 Sur 0 -- -- 78
2019-11-29 02:00:00 16 4 Noroeste 16 Norte 0 -- -- 58
2019-11-29 01:00:00 15.7 4 Oeste 17 Norte 0 -- -- 61
2019-11-29 00:00:00 15.2 7 Oeste 18 Oeste 0 -- -- 69
2019-11-28 23:00:00 16.8 9 Norte 29 Norte 0 -- -- 60
2019-11-28 22:00:00 14.4 5 Oeste 12 Oeste 0 -- -- 74
2019-11-28 21:00:00 13.2 5 Noroeste 9 Oeste 0 -- -- 81
2019-11-28 20:00:00 13.9 0 Calma 12 Oeste 0 -- -- 80
2019-11-28 19:00:00 15.1 0 Calma 12 Noroeste 0 -- -- 75
2019-11-28 18:00:00 16.2 5 Oeste 12 Oeste 0 -- -- 71
2019-11-28 17:00:00 17.5 9 Oeste 17 Oeste 0 -- -- 64
2019-11-28 16:00:00 18.4 5 Sudoeste 13 Oeste 0 -- -- 53
2019-11-28 15:00:00 18.9 9 Sudoeste 15 Sudoeste 0 -- -- 62
2019-11-28 14:00:00 20.3 7 Sudoeste 12 Sudoeste 0 -- -- 63
2019-11-28 13:00:00 20.4 7 Sudoeste 13 Sudoeste 0 -- -- 61
2019-11-28 12:00:00 20.3 7 Sudoeste 16 Sudoeste 0 -- -- 61
2019-11-28 11:00:00 22.1 7 Sudoeste 14 Este 0 -- -- 50
2019-11-28 10:00:00 20.8 6 Oeste 29 Norte 0 -- -- 49
2019-11-28 09:00:00 18.2 12 Norte 27 Norte 0 -- -- 52
2019-11-28 08:00:00 15.3 5 Noroeste 21 Norte 0 -- -- 60
2019-11-28 07:00:00 15.7 8 Noroeste 19 Noroeste 0 -- -- 61
2019-11-28 06:00:00 15.9 9 Norte 24 Norte 0 -- -- 61
2019-11-28 05:00:00 14.8 6 Oeste 14 Oeste 0 -- -- 70
2019-11-28 04:00:00 15.5 9 Oeste 17 Noroeste 0 -- -- 61
2019-11-28 03:00:00 15.2 4 Oeste 15 Noroeste 0 -- -- 66
2019-11-28 02:00:00 15 7 Noroeste 14 Oeste 0 -- -- 71
2019-11-28 01:00:00 15.6 5 Oeste 17 Oeste 0 -- -- 71
2019-11-28 00:00:00 16.4 12 Oeste 28 Noroeste 0 -- -- 58
2019-11-27 23:00:00 16.5 9 Oeste 20 Oeste 0 -- -- 59
2019-11-27 22:00:00 16.3 12 Oeste 19 Oeste 0 -- -- 68
2019-11-27 21:00:00 16.3 9 Oeste 24 Sudoeste 0 -- -- 70
2019-11-27 20:00:00 18 13 Oeste 32 Noroeste 0 -- -- 61
2019-11-27 19:00:00 19.2 18 Noroeste 35 Noroeste 0 -- -- 47
2019-11-27 18:00:00 19.3 17 Noroeste 33 Noroeste 0 -- -- 46
2019-11-27 17:00:00 18.3 17 Oeste 37 Oeste 0 -- -- 66
2019-11-27 16:00:00 18.6 24 Oeste 43 Oeste 0 -- -- 68
2019-11-27 15:00:00 19.2 21 Oeste 47 Oeste 0 -- -- 70
2019-11-27 14:00:00 20.1 23 Oeste 44 Oeste 0 -- -- 63
2019-11-27 06:00:00 16 19 Oeste 35 Oeste 0 -- -- 80
2019-11-27 05:00:00 16.1 18 Oeste 30 Oeste 0 -- -- 77
2019-11-27 04:00:00 16.4 17 Oeste 29 Oeste 0 -- -- 75
2019-11-27 03:00:00 16.3 15 Oeste 33 Oeste 0 -- -- 73
2019-11-27 02:00:00 16.1 13 Noroeste 26 Oeste 0 -- -- 77
2019-11-27 01:00:00 15.6 10 Noroeste 21 Oeste 0 -- -- 80
2019-11-27 00:00:00 15.4 7 Noroeste 23 Oeste 0 -- -- 82
2019-11-26 23:00:00 15.1 10 Noroeste 17 Noroeste 0 -- -- 88
2019-11-26 22:00:00 15.5 8 Noroeste 23 Noroeste 0 -- -- 87
2019-11-26 21:00:00 15.9 14 Oeste 28 Oeste 0 -- -- 88
2019-11-26 20:00:00 16 11 Oeste 27 Oeste 0 -- -- 88
2019-11-26 19:00:00 17 16 Oeste 28 Oeste 0 -- -- 83
2019-11-26 18:00:00 17.5 17 Oeste 33 Oeste 0 -- -- 81
2019-11-26 17:00:00 18.5 11 Oeste 25 Oeste 0 -- -- 73
2019-11-26 16:00:00 19.7 10 Oeste 23 Oeste 0 -- -- 67
2019-11-26 15:00:00 20.4 6 Oeste 13 Sudoeste 0 -- -- 62
2019-11-26 14:00:00 21.4 6 Sudoeste 28 Sudoeste 0 -- -- 57
2019-11-26 13:00:00 23.4 9 Oeste 25 Oeste 0 -- -- 45
2019-11-26 12:00:00 21.7 12 Oeste 22 Oeste 0 -- -- 53
2019-11-26 11:00:00 22.9 9 Norte 27 Norte 0 -- -- 42
2019-11-26 10:00:00 21.3 12 Norte 28 Nordeste 0 -- -- 49
2019-11-26 09:00:00 19.2 5 Sudoeste 10 Oeste 0 -- -- 60
2019-11-26 08:00:00 15.2 6 Oeste 12 Oeste 0 -- -- 72
2019-11-26 07:00:00 15.6 7 Noroeste 18 Norte 0 -- -- 75
2019-11-26 06:00:00 15.7 7 Noroeste 12 Sudoeste 0 -- -- 73
2019-11-26 05:00:00 15.1 2 Norte 14 Oeste 0 -- -- 78
2019-11-26 04:00:00 14.6 10 Oeste 15 Oeste 0 -- -- 89
2019-11-26 03:00:00 14.8 2 Oeste 13 Oeste 0 -- -- 89
2019-11-26 02:00:00 15 3 Oeste 9 Noroeste 0 -- -- 88
2019-11-26 01:00:00 15.8 7 Noroeste 20 Oeste 0 -- -- 86
2019-11-26 00:00:00 16 4 Oeste 29 Oeste 0 -- -- 84
2019-11-25 23:00:00 16.1 18 Oeste 30 Oeste 0 -- -- 85
2019-11-25 22:00:00 16.9 18 Oeste 35 Oeste 0 -- -- 81
2019-11-25 21:00:00 16.8 18 Oeste 28 Oeste 0 -- -- 80
2019-11-25 20:00:00 16.8 12 Oeste 24 Oeste 0 -- -- 78
2019-11-25 19:00:00 16.8 15 Noroeste 24 Oeste 0 -- -- 79
2019-11-25 18:00:00 16.5 11 Noroeste 33 Oeste 0 -- -- 78
2019-11-25 17:00:00 17.4 18 Oeste 38 Oeste 0 -- -- 71
2019-11-25 16:00:00 18.5 18 Oeste 33 Oeste 0 -- -- 69
2019-11-25 15:00:00 19.7 17 Oeste 39 Oeste 0 -- -- 65
2019-11-25 14:00:00 19.9 21 Oeste 34 Oeste 0 -- -- 64
2019-11-25 13:00:00 19.3 11 Oeste 26 Oeste 0 -- -- 68
2019-11-25 12:00:00 19.1 8 Sudoeste 18 Sudoeste 0 -- -- 67
2019-11-25 11:00:00 20.6 8 Oeste 14 Sudoeste 0 -- -- 60
2019-11-25 10:00:00 18.6 7 Sur 21 Sur 0 -- -- 61
2019-11-25 09:00:00 16.2 15 Sudeste 23 Sudeste 0 -- -- 68
2019-11-25 08:00:00 14.6 4 Sudeste 12 Sur 0 -- -- 75
2019-11-25 07:00:00 14.1 4 Sudoeste 10 Oeste 0 -- -- 69
2019-11-25 06:00:00 14.2 6 Oeste 22 Noroeste 0 -- -- 61
2019-11-25 05:00:00 15 10 Noroeste 21 Noroeste 0 -- -- 57
2019-11-25 04:00:00 12.7 5 Noroeste 12 Oeste 0 -- -- 70
2019-11-25 03:00:00 14 7 Oeste 18 Oeste 0 -- -- 70
2019-11-25 02:00:00 15.3 6 Norte 23 Norte 0 -- -- 53
2019-11-25 01:00:00 15.5 11 Noroeste 30 Noroeste 0 -- -- 53
2019-11-25 00:00:00 15.4 13 Norte 36 Noroeste 0 -- -- 52
2019-11-24 23:00:00 15.1 9 Noroeste 29 Noroeste 0 -- -- 52
2019-11-24 22:00:00 15.5 15 Noroeste 27 Noroeste 0 -- -- 50
2019-11-24 21:00:00 15.5 6 Norte 27 Noroeste 0 -- -- 50
2019-11-24 20:00:00 16.2 16 Noroeste 33 Noroeste 0 -- -- 44
2019-11-24 19:00:00 14.5 3 Nordeste 23 Oeste 0 -- -- 60
2019-11-24 18:00:00 15.9 14 Oeste 31 Oeste 0 -- -- 55
2019-11-24 17:00:00 16.6 14 Oeste 44 Oeste 0 -- -- 53
2019-11-24 16:00:00 17.4 24 Oeste 40 Oeste 0 -- -- 51
2019-11-24 15:00:00 20 7 Sudeste 15 Sur 0 -- -- 33
2019-11-24 14:00:00 21.1 9 Noroeste 26 Oeste 0 -- -- 30
2019-11-24 13:00:00 18.5 10 Sudoeste 30 Norte 0 -- -- 40
2019-11-24 12:00:00 22.5 10 Noroeste 23 Norte 0 -- -- 27
2019-11-24 11:00:00 21.3 9 Noroeste 18 Noroeste 0 -- -- 31
2019-11-24 10:00:00 18.9 10 Oeste 27 Oeste 0 -- -- 35
2019-11-24 09:00:00 15.9 11 Oeste 26 Noroeste 0 -- -- 42
2019-11-24 08:00:00 14.5 17 Noroeste 45 Noroeste 0 -- -- 45
2019-11-24 07:00:00 14.9 28 Oeste 51 Oeste 0 -- -- 42
2019-11-24 06:00:00 14.6 22 Noroeste 35 Oeste 0 -- -- 42
2019-11-24 05:00:00 11.6 0 Calma 21 Oeste 0 -- -- 61
2019-11-24 04:00:00 13.7 13 Oeste 26 Oeste 0 -- -- 52
2019-11-24 03:00:00 13.4 6 Noroeste 24 Noroeste 0 -- -- 51
2019-11-24 02:00:00 13.8 13 Noroeste 25 Noroeste 0 -- -- 52
2019-11-24 01:00:00 13.4 5 Noroeste 12 Oeste 0 -- -- 54
2019-11-24 00:00:00 14 2 Sudeste 24 Noroeste 0 -- -- 52
2019-11-23 23:00:00 14.9 9 Noroeste 37 Noroeste 0 -- -- 48
2019-11-23 22:00:00 15.4 21 Noroeste 49 Noroeste 0 -- -- 49
2019-11-23 21:00:00 15.9 28 Noroeste 46 Noroeste 0 -- -- 45
2019-11-23 20:00:00 15.6 14 Oeste 41 Noroeste 0 -- -- 50
2019-11-23 19:00:00 16 18 Oeste 45 Noroeste 0 -- -- 47
2019-11-23 18:00:00 16.8 27 Noroeste 52 Noroeste 0 -- -- 45
2019-11-23 17:00:00 17.7 32 Noroeste 53 Noroeste 0 -- -- 40
2019-11-23 16:00:00 18.2 31 Noroeste 54 Noroeste 0 -- -- 40
2019-11-23 15:00:00 19 34 Noroeste 55 Noroeste 0 -- -- 36
2019-11-23 14:00:00 19.3 25 Noroeste 49 Oeste 0 -- -- 38
2019-11-23 13:00:00 19.1 31 Noroeste 55 Noroeste 0 -- -- 38
2019-11-23 12:00:00 19.2 28 Noroeste 51 Oeste 0 -- -- 39
2019-11-23 11:00:00 17.7 29 Noroeste 46 Noroeste 0 -- -- 41
2019-11-23 10:00:00 17.8 30 Noroeste 52 Noroeste 0 -- -- 46
2019-11-23 09:00:00 15.3 26 Noroeste 47 Noroeste 0 -- -- 54
2019-11-23 08:00:00 14.7 32 Noroeste 59 Oeste 0 -- -- 57
2019-11-23 07:00:00 15.2 17 Noroeste -- -- 0 -- -- 59
2019-11-23 06:00:00 15.9 19 Oeste 50 Noroeste 0 -- -- 51
2019-11-23 05:00:00 14.2 6 Noroeste 20 Noroeste 0 -- -- 64
2019-11-23 04:00:00 15.3 5 Noroeste 18 Oeste 0 -- -- 62
2019-11-23 03:00:00 15.9 11 Noroeste 27 Noroeste 0 -- -- 59
2019-11-23 02:00:00 15.8 14 Noroeste 29 Noroeste 0 -- -- 58
2019-11-23 01:00:00 15.2 12 Oeste 40 Norte 0 -- -- 65
2019-11-23 00:00:00 15.3 18 Noroeste 41 Noroeste 0 -- -- 70
2019-11-22 23:00:00 14.7 7 Noroeste 22 Norte 0.2 -- -- 94
2019-11-22 22:00:00 15.9 17 Oeste 37 Oeste 2.2 -- -- 96
2019-11-22 21:00:00 15.9 18 Oeste 33 Oeste 2.2 -- -- 96
2019-11-22 20:00:00 16.1 10 Oeste 30 Oeste 0.2 -- -- 96
2019-11-22 19:00:00 15 5 Sudeste 11 Nordeste 0.6 -- -- 97
2019-11-22 18:00:00 14.2 3 Nordeste 13 Oeste 0.2 -- -- 97
2019-11-22 17:00:00 14.3 6 Noroeste 9 Noroeste 6.8 -- -- 96
2019-11-22 16:00:00 14.1 4 Norte 7 Nordeste 7.2 -- -- 96
2019-11-22 15:00:00 14 3 Nordeste 8 Nordeste 1 -- -- 96
2019-11-22 14:00:00 14.1 5 Sudeste 11 Este 3.8 -- -- 96
2019-11-22 13:00:00 14.5 3 Nordeste 7 Sudeste 4.4 -- -- 96
2019-11-22 12:00:00 14.4 3 Este 10 Sudeste 4 -- -- 96
2019-11-22 11:00:00 14.4 5 Sudeste 9 Este 4.2 -- -- 96
2019-11-22 10:00:00 14.2 0 Calma 9 Este 4.8 -- -- 96
2019-11-22 09:00:00 14 0 Calma 7 Este 11 -- -- 96
2019-11-22 08:00:00 14.2 3 Norte 13 Noroeste 3.2 -- -- 95
2019-11-22 07:00:00 14.1 12 Noroeste 26 Noroeste 3.4 -- -- 95
2019-11-22 06:00:00 14.4 15 Oeste 35 Noroeste 2.6 -- -- 95
2019-11-22 05:00:00 14.6 10 Oeste 19 Oeste 1.6 -- -- 95
2019-11-22 04:00:00 14.3 0 Calma 3 Sudeste 2 -- -- 95
2019-11-22 03:00:00 14.4 0 Calma 9 Oeste 1.6 -- -- 95
2019-11-22 02:00:00 14.4 4 Oeste 7 Oeste 1.6 -- -- 95
2019-11-22 01:00:00 14.1 2 Norte 4 Norte 0.2 -- -- 95
2019-11-22 00:00:00 14 4 Sudeste 5 Sudeste 1.2 -- -- 94
2019-11-21 23:00:00 13.9 0 Calma 4 Nordeste 0.4 -- -- 94
2019-11-21 22:00:00 13.8 0 Calma 5 Nordeste 3.8 -- -- 94
2019-11-21 21:00:00 13.8 4 Nordeste 11 Este 5.4 -- -- 93
2019-11-21 20:00:00 14.2 5 Este 9 Este 3.2 -- -- 93
2019-11-21 19:00:00 14.2 0 Calma 8 Sudoeste 1.4 -- -- 91
2019-11-21 18:00:00 14.5 2 Sudoeste 4 Sur 1.2 -- -- 90
2019-11-21 17:00:00 15.1 0 Calma 9 Oeste 0 -- -- 88
2019-11-21 16:00:00 15.6 6 Oeste 12 Noroeste 0.2 -- -- 87
2019-11-21 15:00:00 15.5 2 Norte 11 Noroeste 0.2 -- -- 90
2019-11-21 14:00:00 15.6 3 Noroeste 9 Noroeste 0 -- -- 89
2019-11-21 13:00:00 13.8 3 Norte 6 Norte 2 -- -- 91
2019-11-21 12:00:00 13.4 3 Nordeste 10 Norte 1 -- -- 88
2019-11-21 11:00:00 13.2 4 Noroeste 6 Oeste 0.6 -- -- 87
2019-11-21 10:00:00 13.3 0 Calma 5 Norte 0 -- -- 86
2019-11-21 09:00:00 12.5 0 Calma 6 Norte 0 -- -- 87
2019-11-21 08:00:00 -- -- -- -- -- -- -- -- --
2019-11-21 07:00:00 -- -- -- -- -- -- -- -- --
2019-11-21 06:00:00 -- -- -- -- -- -- -- -- --
2019-11-21 05:00:00 -- -- -- -- -- -- -- -- --
2019-11-21 04:00:00 -- -- -- -- -- -- -- -- --
2019-11-21 03:00:00 -- -- -- -- -- -- -- -- --
2019-11-21 02:00:00 -- -- -- -- -- -- -- -- --
2019-11-21 01:00:00 -- -- -- -- -- -- -- -- --
2019-11-21 00:00:00 -- -- -- -- -- -- -- -- --
2019-11-20 23:00:00 -- -- -- -- -- -- -- -- --
2019-11-20 22:00:00 12.9 4 Oeste 12 Noroeste 0 -- -- 86
2019-11-20 21:00:00 13 4 Noroeste 11 Oeste 0.2 -- -- 87
2019-11-20 20:00:00 13.6 10 Oeste 17 Oeste 0.4 -- -- 83
2019-11-20 19:00:00 14 4 Oeste 8 Oeste 0 -- -- 80
2019-11-20 18:00:00 14.2 4 Oeste 9 Oeste 0 -- -- 79
2019-11-20 17:00:00 14.6 3 Noroeste 7 Sudoeste 0 -- -- 78
2019-11-20 16:00:00 13.7 4 Este 11 Noroeste 0.2 -- -- 82
2019-11-20 15:00:00 13.6 9 Noroeste 28 Oeste 0 -- -- 82
2019-11-20 14:00:00 14.8 8 Oeste 22 Sudoeste 0 -- -- 73
2019-11-20 13:00:00 16.7 3 Sur 8 Sudoeste 0 -- -- 58
2019-11-20 12:00:00 18.9 5 Sur 8 Sur 0 -- -- 50
2019-11-20 11:00:00 20.7 4 Sur 6 Sur 0 -- -- 40
2019-11-20 10:00:00 18.6 0 Calma 2 Noroeste 0 -- -- 44
2019-11-20 09:00:00 12.7 0 Calma 4 Oeste 0 -- -- 62
2019-11-20 08:00:00 9.7 3 Nordeste 7 Nordeste 0 -- -- 65
2019-11-20 07:00:00 9.8 4 Nordeste 7 Nordeste 0 -- -- 66
2019-11-20 06:00:00 10.4 0 Calma 4 Norte 0 -- -- 68
2019-11-20 05:00:00 11.6 0 Calma 8 Nordeste 0 -- -- 66
2019-11-20 04:00:00 11.6 4 Nordeste 8 Norte 0 -- -- 64
2019-11-20 03:00:00 11.4 3 Norte 5 Noroeste 0 -- -- 68
2019-11-20 02:00:00 11.9 3 Sudeste 9 Sudeste 0 -- -- 71
2019-11-20 01:00:00 12.2 0 Calma 6 Sudoeste 0 -- -- 69
2019-11-20 00:00:00 12.2 0 Calma 5 Este 0 -- -- 68
2019-11-19 23:00:00 12.3 0 Calma 4 Sudeste 0 -- -- 67
2019-11-19 22:00:00 11.9 3 Noroeste 5 Nordeste 0 -- -- 65
2019-11-19 21:00:00 11.6 3 Norte 6 Nordeste 0 -- -- 68
2019-11-19 20:00:00 12.2 0 Calma 6 Nordeste 0 -- -- 70
2019-11-19 19:00:00 13.5 2 Norte 7 Oeste 0 -- -- 71
2019-11-19 18:00:00 14.2 4 Oeste 11 Sudoeste 0 -- -- 65
2019-11-19 17:00:00 15.2 6 Sudoeste 12 Oeste 0 -- -- 61
2019-11-19 16:00:00 15.9 4 Sudoeste 12 Oeste 0 -- -- 56
2019-11-19 15:00:00 17.6 7 Sudoeste 13 Oeste 0 -- -- 53
2019-11-19 14:00:00 19 5 Sudoeste 16 Sudoeste 0 -- -- 46
2019-11-19 13:00:00 17.3 9 Sudoeste 17 Oeste 0 -- -- 50
2019-11-19 12:00:00 20.4 8 Oeste 14 Sudoeste 0 -- -- 36
2019-11-19 11:00:00 20.4 4 Norte 10 Norte 0 -- -- 32
2019-11-19 10:00:00 16.7 6 Norte 14 Norte 0 -- -- 38
2019-11-19 09:00:00 13.6 3 Sudoeste 12 Norte 0 -- -- 46
2019-11-19 08:00:00 12.1 2 Norte 10 Nordeste 0 -- -- 47
2019-11-19 07:00:00 12.8 6 Norte 13 Norte 0 -- -- 45
2019-11-19 06:00:00 12.8 5 Noroeste 18 Norte 0 -- -- 46
2019-11-19 05:00:00 13.6 10 Norte 22 Norte 0 -- -- 43
2019-11-19 04:00:00 13.4 8 Norte 24 Norte 0 -- -- 44
2019-11-19 03:00:00 13.6 11 Norte 23 Norte 0 -- -- 42
2019-11-19 02:00:00 13.7 9 Norte 22 Norte 0 -- -- 40
2019-11-19 01:00:00 14.1 8 Norte 22 Norte 0 -- -- 38
2019-11-19 00:00:00 14.1 7 Norte 19 Norte 0 -- -- 38
2019-11-18 23:00:00 14.4 6 Norte 23 Noroeste 0 -- -- 39
2019-11-18 22:00:00 14.5 7 Norte 21 Norte 0 -- -- 40
2019-11-18 21:00:00 15.1 8 Norte 20 Norte 0 -- -- 38
2019-11-18 20:00:00 14.8 3 Noroeste 14 Oeste 0 -- -- 40
2019-11-18 19:00:00 15.7 5 Nordeste 14 Nordeste 0 -- -- 40
2019-11-18 18:00:00 16.9 7 Norte 19 Norte 0 -- -- 37
2019-11-18 17:00:00 18.1 5 Noroeste 18 Norte 0 -- -- 36
2019-11-18 16:00:00 15.9 5 Sudeste 26 Sudeste 0 -- -- 63
2019-11-18 15:00:00 16.4 19 Sudeste 25 Sudeste 0 -- -- 65
2019-11-18 14:00:00 16.9 19 Sudeste 24 Sudeste 0 -- -- 65
2019-11-18 13:00:00 21.4 12 Noroeste 26 Noroeste 0 -- -- 30
2019-11-18 12:00:00 20.5 10 Noroeste 33 Noroeste 0 -- -- 37
2019-11-18 11:00:00 19.1 16 Norte 40 Oeste 0 -- -- 38
2019-11-18 10:00:00 17.2 26 Oeste 47 Oeste 0 -- -- 42
2019-11-18 09:00:00 16 19 Noroeste 38 Noroeste 0 -- -- 46
2019-11-18 08:00:00 13.4 9 Noroeste 24 Oeste 0 -- -- 73
2019-11-18 07:00:00 13.3 6 Noroeste 16 Oeste 0 -- -- 88
2019-11-18 06:00:00 14.1 5 Oeste 21 Oeste 0 -- -- 87
2019-11-18 05:00:00 14.1 8 Oeste 17 Oeste 0 -- -- 89
2019-11-18 04:00:00 14.4 9 Noroeste 39 Oeste 0 -- -- 89
2019-11-18 03:00:00 14.5 20 Oeste 37 Oeste 0 -- -- 89
2019-11-18 02:00:00 14.6 19 Oeste 36 Oeste 0 -- -- 87
2019-11-18 01:00:00 14.1 18 Oeste 39 Oeste 0 -- -- 89
2019-11-18 00:00:00 14.4 18 Oeste 42 Sudoeste 0 -- -- 88
2019-11-17 23:00:00 14.3 21 Oeste 45 Oeste 0 -- -- 88
2019-11-17 22:00:00 14.4 24 Oeste 43 Oeste 0 -- -- 87
2019-11-17 21:00:00 14.4 19 Oeste 35 Oeste 0 -- -- 82
2019-11-17 20:00:00 14.5 25 Oeste 50 Sudoeste 0 -- -- 83
2019-11-17 19:00:00 14.6 20 Oeste 39 Oeste 0 -- -- 80
2019-11-17 18:00:00 14.9 22 Oeste 45 Oeste 0 -- -- 76
2019-11-17 17:00:00 15.3 22 Oeste 42 Oeste 0 -- -- 72
2019-11-17 16:00:00 16 21 Oeste 35 Sudoeste 0 -- -- 66
2019-11-17 15:00:00 16.3 18 Oeste 46 Oeste 0 -- -- 55
2019-11-17 14:00:00 17.8 18 Oeste 37 Oeste 0 -- -- 49
2019-11-17 13:00:00 17.4 20 Oeste 40 Oeste 0 -- -- 52
2019-11-17 12:00:00 17.4 14 Oeste 33 Oeste 0 -- -- 49
2019-11-17 11:00:00 17.1 14 Oeste 27 Oeste 0 -- -- 41
2019-11-17 10:00:00 18.3 9 Oeste 25 Oeste 0 -- -- 34
2019-11-17 09:00:00 14.9 10 Oeste 21 Oeste 0 -- -- 43
2019-11-17 08:00:00 12 8 Oeste 27 Noroeste 0 -- -- 44
2019-11-17 07:00:00 12.1 13 Oeste 34 Noroeste 0 -- -- 42
2019-11-17 06:00:00 13.4 23 Noroeste 44 Noroeste 0 -- -- 37
2019-11-17 05:00:00 13 21 Noroeste 33 Noroeste 0 -- -- 38
2019-11-17 04:00:00 10 2 Sur 4 Oeste 0 -- -- 56
2019-11-17 03:00:00 11.3 0 Calma 21 Norte 0 -- -- 45
2019-11-17 02:00:00 11.9 8 Norte 24 Norte 0 -- -- 43
2019-11-17 01:00:00 12.2 8 Norte 21 Noroeste 0 -- -- 42
2019-11-17 00:00:00 12.2 8 Noroeste 24 Noroeste 0 -- -- 41
2019-11-16 23:00:00 13.2 11 Oeste 33 Oeste 0 -- -- 40
2019-11-16 22:00:00 13.3 12 Noroeste 28 Oeste 0 -- -- 37
2019-11-16 21:00:00 13.8 11 Norte 44 Noroeste 0 -- -- 37
2019-11-16 20:00:00 14.5 19 Norte 42 Norte 0 -- -- 34
2019-11-16 19:00:00 15 14 Noroeste 29 Oeste 0 -- -- 31
2019-11-16 18:00:00 15.7 15 Noroeste 35 Noroeste 0 -- -- 32
2019-11-16 17:00:00 16.8 17 Noroeste 40 Oeste 0 -- -- 30
2019-11-16 16:00:00 15.8 20 Oeste 41 Oeste 0 -- -- 47
2019-11-16 15:00:00 16.5 20 Oeste 39 Oeste 0 -- -- 42
2019-11-16 14:00:00 17.7 9 Oeste 31 Oeste 0 -- -- 45
2019-11-16 13:00:00 16.7 18 Oeste 35 Oeste 0 -- -- 44
2019-11-16 12:00:00 17.9 12 Sudoeste 25 Sudoeste 0 -- -- 42
2019-11-16 11:00:00 17.8 10 Noroeste 25 Norte 0 -- -- 28
2019-11-16 10:00:00 15.8 10 Norte 31 Noroeste 0 -- -- 32
2019-11-16 09:00:00 12.8 12 Norte 25 Norte 0 -- -- 42
2019-11-16 08:00:00 10.6 11 Norte 30 Norte 0 -- -- 50
2019-11-16 07:00:00 9.8 6 Noroeste 14 Noroeste 0 -- -- 53
2019-11-16 06:00:00 10 2 Norte 21 Oeste 0 -- -- 55
2019-11-16 05:00:00 10.8 6 Oeste 18 Oeste 0 -- -- 48
2019-11-16 04:00:00 10.9 3 Oeste 14 Noroeste 0 -- -- 50
2019-11-16 03:00:00 10.6 4 Noroeste 17 Oeste 0 -- -- 49
2019-11-16 02:00:00 10.8 6 Noroeste 15 Noroeste 0 -- -- 49
2019-11-16 01:00:00 11.2 9 Noroeste 16 Oeste 0 -- -- 47
2019-11-16 00:00:00 11.2 4 Noroeste 22 Noroeste 0 -- -- 45
2019-11-15 23:00:00 11.3 9 Noroeste 30 Norte 0 -- -- 45
2019-11-15 22:00:00 11.3 7 Noroeste 22 Norte 0 -- -- 47
2019-11-15 21:00:00 11.7 14 Norte 42 Norte 0 -- -- 46
2019-11-15 20:00:00 12.1 17 Noroeste 35 Noroeste 0 -- -- 42
2019-11-15 19:00:00 12.3 13 Noroeste 42 Noroeste 0 -- -- 40
2019-11-15 18:00:00 12.6 14 Noroeste 36 Noroeste 0 -- -- 41
2019-11-15 17:00:00 14.5 16 Noroeste 41 Noroeste 0 -- -- 33
2019-11-15 16:00:00 15.1 22 Noroeste 35 Noroeste 0 -- -- 32
2019-11-15 15:00:00 16.2 18 Oeste 37 Sudoeste 0 -- -- 39
2019-11-15 14:00:00 17.3 16 Oeste 30 Oeste 0 -- -- 37
2019-11-15 13:00:00 17.8 12 Noroeste 29 Noroeste 0 -- -- 35
2019-11-15 12:00:00 15 15 Noroeste 40 Noroeste 0 -- -- 36
2019-11-15 11:00:00 14.8 17 Noroeste 37 Noroeste 0 -- -- 37
2019-11-15 10:00:00 14.6 16 Noroeste 37 Norte 0 -- -- 38
2019-11-15 09:00:00 13.5 12 Norte 40 Oeste 0 -- -- 40
2019-11-15 08:00:00 11.5 14 Noroeste 31 Noroeste 0 -- -- 45
2019-11-15 07:00:00 11.4 15 Oeste 39 Noroeste 0 -- -- 47
2019-11-15 06:00:00 12 23 Noroeste 42 Noroeste 0 -- -- 46
2019-11-15 05:00:00 12.3 13 Noroeste 30 Noroeste 0 -- -- 46
2019-11-15 04:00:00 13 12 Noroeste 39 Noroeste 0 -- -- 45
2019-11-15 03:00:00 12.6 8 Noroeste 18 Norte 0 -- -- 47
2019-11-15 02:00:00 12.7 6 Noroeste 20 Norte 0 -- -- 49
2019-11-15 01:00:00 12.6 6 Noroeste 21 Oeste 0 -- -- 51
2019-11-15 00:00:00 13.1 4 Noroeste 27 Noroeste 0 -- -- 48
2019-11-14 23:00:00 13.8 8 Noroeste 33 Noroeste 0 -- -- 46
2019-11-14 22:00:00 14.5 15 Noroeste 33 Noroeste 0 -- -- 44
2019-11-14 21:00:00 14.1 10 Noroeste 25 Noroeste 0 -- -- 43
2019-11-14 20:00:00 14.3 9 Noroeste 31 Noroeste 0 -- -- 42
2019-11-14 19:00:00 14.9 19 Noroeste 36 Noroeste 0 -- -- 41
2019-11-14 18:00:00 15.1 6 Norte 53 Oeste 0 -- -- 42
2019-11-14 17:00:00 16.2 21 Oeste 59 Oeste 0 -- -- 40
2019-11-14 16:00:00 16.1 32 Noroeste 48 Oeste 0 -- -- 49
2019-11-14 15:00:00 15.1 23 Oeste 57 Oeste 0 -- -- 78
2019-11-14 14:00:00 16.6 30 Oeste 55 Oeste 0 -- -- 65
2019-11-14 13:00:00 16.1 26 Oeste 60 Oeste 0 -- -- 70
2019-11-14 12:00:00 18.1 31 Oeste 53 Oeste 0 -- -- 54
2019-11-14 11:00:00 17.8 26 Oeste 51 Oeste 0 -- -- 56
2019-11-14 10:00:00 19.2 11 Oeste 33 Noroeste 0 -- -- 45
2019-11-14 09:00:00 17.7 16 Noroeste 26 Oeste 0 -- -- 49
2019-11-14 08:00:00 14.3 8 Noroeste 18 Noroeste 0 -- -- 70
2019-11-14 07:00:00 14.2 9 Noroeste 17 Noroeste 0 -- -- 71
2019-11-14 06:00:00 15 11 Oeste 28 Oeste 0 -- -- 71
2019-11-14 05:00:00 16.3 12 Oeste 22 Oeste 0 -- -- 58
2019-11-14 04:00:00 16 15 Oeste 28 Oeste 0 -- -- 64
2019-11-14 03:00:00 16.1 18 Oeste 31 Oeste 0 -- -- 69
2019-11-14 02:00:00 16.5 8 Noroeste 23 Oeste 0 -- -- 65
2019-11-14 01:00:00 16.5 12 Oeste 21 Oeste 0 -- -- 69
2019-11-14 00:00:00 16.8 12 Oeste 29 Oeste 0 -- -- 68
2019-11-13 23:00:00 17.4 11 Oeste 19 Oeste 0 -- -- 62
2019-11-13 22:00:00 18.9 10 Noroeste 24 Oeste 0 -- -- 52
2019-11-13 21:00:00 19.3 9 Oeste 33 Noroeste 0 -- -- 50
2019-11-13 20:00:00 19.6 22 Noroeste 44 Noroeste 0 -- -- 46
2019-11-13 19:00:00 19.9 27 Noroeste 51 Noroeste 0 -- -- 46
2019-11-13 18:00:00 20.4 22 Noroeste 52 Oeste 0 -- -- 45
2019-11-13 17:00:00 21.8 23 Noroeste 46 Noroeste 0 -- -- 42
2019-11-13 16:00:00 22.3 24 Oeste 44 Oeste 0 -- -- 47
2019-11-13 15:00:00 21.9 25 Oeste 50 Oeste 0 -- -- 54
2019-11-13 14:00:00 22.8 22 Oeste 46 Oeste 0 -- -- 51
2019-11-13 13:00:00 21.9 28 Oeste 51 Oeste 0 -- -- 52
2019-11-13 12:00:00 21.7 23 Oeste 39 Oeste 0 -- -- 52
2019-11-13 11:00:00 20.5 26 Oeste 45 Oeste 0 -- -- 54
2019-11-13 10:00:00 20.8 19 Oeste 36 Oeste 0 -- -- 51
2019-11-13 09:00:00 18.9 12 Noroeste 22 Oeste 0 -- -- 57
2019-11-13 08:00:00 16.5 11 Oeste 33 Oeste 0 -- -- 58
2019-11-13 07:00:00 16.6 16 Noroeste 35 Noroeste 0 -- -- 55
2019-11-13 06:00:00 16.5 21 Noroeste 41 Noroeste 0 -- -- 55
2019-11-13 05:00:00 16.8 31 Noroeste 49 Noroeste 0 -- -- 54
2019-11-13 04:00:00 17.1 26 Noroeste 50 Oeste 0 -- -- 51
2019-11-13 03:00:00 17.1 30 Noroeste 54 Oeste 0 -- -- 45
2019-11-13 02:00:00 17.2 30 Noroeste 51 Noroeste 0 -- -- 44
2019-11-13 01:00:00 16.8 14 Noroeste 33 Noroeste 0 -- -- 43
2019-11-13 00:00:00 16.4 4 Noroeste 22 Noroeste 0 -- -- 46
2019-11-12 23:00:00 17.2 9 Norte 30 Oeste 0 -- -- 43
2019-11-12 22:00:00 17.8 11 Noroeste 37 Noroeste 0 -- -- 42
2019-11-12 21:00:00 17.9 17 Noroeste 43 Noroeste 0 -- -- 41
2019-11-12 20:00:00 18.1 8 Norte 35 Noroeste 0 -- -- 37
2019-11-12 19:00:00 19 19 Noroeste 41 Noroeste 0 -- -- 35
2019-11-12 18:00:00 20 11 Norte 31 Noroeste 0 -- -- 33
2019-11-12 17:00:00 20.7 8 Noroeste 20 Noroeste 0 -- -- 33
2019-11-12 16:00:00 17.8 9 Sur 18 Sudoeste 0 -- -- 65
2019-11-12 15:00:00 18 10 Sudeste 19 Sudeste 0 -- -- 63
2019-11-12 14:00:00 19 9 Sudeste 15 Sudeste 0 -- -- 60
2019-11-12 13:00:00 19.8 12 Sur 24 Sudeste 0 -- -- 54
2019-11-12 12:00:00 20.9 9 Sur 16 Sudeste 0 -- -- 44
2019-11-12 11:00:00 22.2 11 Norte 31 Norte 0 -- -- 29
2019-11-12 10:00:00 20.8 8 Norte 28 Norte 0 -- -- 32
2019-11-12 09:00:00 18.7 5 Nordeste 24 Norte 0 -- -- 39
2019-11-12 08:00:00 15.5 9 Norte 36 Norte 0 -- -- 46
2019-11-12 07:00:00 15.5 18 Norte 39 Norte 0 -- -- 48
2019-11-12 06:00:00 16.2 20 Norte 35 Norte 0 -- -- 47
2019-11-12 05:00:00 15.8 13 Norte 30 Norte 0 -- -- 51
2019-11-12 04:00:00 15.8 6 Noroeste 27 Norte 0 -- -- 52
2019-11-12 03:00:00 15.8 8 Noroeste 25 Oeste 0 -- -- 53
2019-11-12 02:00:00 15.3 6 Sudeste 18 Norte 0 -- -- 59
2019-11-12 01:00:00 16.6 9 Norte 28 Norte 0 -- -- 52
2019-11-12 00:00:00 16.7 9 Norte 31 Norte 0 -- -- 53
2019-11-11 23:00:00 17 15 Norte 35 Norte 0 -- -- 54
2019-11-11 22:00:00 16.7 3 Oeste 11 Sudoeste 0 -- -- 54
2019-11-11 21:00:00 16.2 8 Sur 19 Norte 0 -- -- 54
2019-11-11 20:00:00 18 8 Norte 33 Noroeste 0 -- -- 49
2019-11-11 19:00:00 18 11 Norte 27 Norte 0 -- -- 48
2019-11-11 18:00:00 17.8 5 Oeste 25 Oeste 0 -- -- 49
2019-11-11 17:00:00 18.5 11 Oeste 30 Oeste 0 -- -- 44
2019-11-11 16:00:00 19.5 15 Noroeste 47 Oeste 0 -- -- 38
2019-11-11 15:00:00 20.1 5 Sudoeste 32 Oeste 0 -- -- 33
2019-11-11 14:00:00 19.5 14 Oeste 44 Oeste 0 -- -- 43
2019-11-11 13:00:00 18 17 Oeste 34 Oeste 0 -- -- 50
2019-11-11 12:00:00 18.8 8 Noroeste 23 Noroeste 0 -- -- 32
2019-11-11 11:00:00 16.8 12 Noroeste 28 Noroeste 0 -- -- 38
2019-11-11 10:00:00 15.1 10 Noroeste 23 Oeste 0 -- -- 46
2019-11-11 09:00:00 13.9 9 Noroeste 20 Noroeste 0 -- -- 45
2019-11-11 08:00:00 13.2 7 Noroeste 19 Noroeste 0 -- -- 45
2019-11-11 07:00:00 12.7 4 Sudoeste 13 Oeste 0 -- -- 49
2019-11-11 06:00:00 13 7 Noroeste 24 Noroeste 0 -- -- 47
2019-11-11 05:00:00 13.5 16 Noroeste 27 Noroeste 0 -- -- 46
2019-11-11 04:00:00 14.4 10 Noroeste 49 Oeste 0 -- -- 42
2019-11-11 03:00:00 14.6 30 Noroeste 55 Noroeste 0 -- -- 42
2019-11-11 02:00:00 14.8 33 Noroeste 54 Noroeste 0 -- -- 44
2019-11-11 01:00:00 14.6 31 Oeste 50 Noroeste 0 -- -- 45
2019-11-11 00:00:00 14.8 26 Noroeste 49 Oeste 0 -- -- 45
2019-11-10 23:00:00 14.7 14 Noroeste 36 Oeste 0 -- -- 45
2019-11-10 22:00:00 15.3 8 Noroeste 29 Oeste 0 -- -- 42
2019-11-10 21:00:00 15.3 14 Noroeste 30 Noroeste 0 -- -- 42
2019-11-10 20:00:00 15.5 11 Noroeste 49 Noroeste 0 -- -- 42
2019-11-10 19:00:00 16.2 13 Noroeste 33 Noroeste 0 -- -- 39
2019-11-10 18:00:00 16.8 13 Noroeste 35 Noroeste 0 -- -- 35
2019-11-10 17:00:00 17.8 15 Noroeste 38 Oeste 0 -- -- 36
2019-11-10 16:00:00 19.1 17 Noroeste 44 Noroeste 0 -- -- 31
2019-11-10 15:00:00 20.6 17 Noroeste 43 Oeste 0 -- -- 29
2019-11-10 14:00:00 19.7 23 Noroeste 43 Noroeste 0 -- -- 30
2019-11-10 13:00:00 21 14 Noroeste 36 Noroeste 0 -- -- 32
2019-11-10 12:00:00 18 17 Noroeste 46 Norte 0 -- -- 40
2019-11-10 11:00:00 17.9 20 Norte 57 Noroeste 0 -- -- 40
2019-11-10 10:00:00 17.4 15 Norte 55 Norte 0 -- -- 41
2019-11-10 09:00:00 16.7 14 Noroeste 59 Oeste 0 -- -- 43
2019-11-10 08:00:00 16.8 24 Noroeste 50 Noroeste 0 -- -- 46
2019-11-10 07:00:00 16.9 20 Noroeste 50 Oeste 0 -- -- 48
2019-11-10 06:00:00 17 27 Noroeste 59 Noroeste 0 -- -- 49
2019-11-10 05:00:00 16.6 6 Oeste 33 Oeste 0 -- -- 51
2019-11-10 04:00:00 16.1 7 Norte 35 Norte 0 -- -- 55
2019-11-10 03:00:00 15.9 16 Norte 39 Norte 0 -- -- 57
2019-11-10 02:00:00 16.1 12 Norte 28 Noroeste 0 -- -- 55
2019-11-10 01:00:00 16.8 15 Noroeste 37 Noroeste 0 -- -- 48
2019-11-10 00:00:00 17.8 24 Noroeste 53 Noroeste 0 -- -- 42